Time,TemperatureF,DewpointF,PressureIn,WindDirection,WindDirectionDegrees,WindSpeedMPH,WindSpeedGustMPH,Humidity,HourlyPrecipIn,Conditions,Clouds,dailyrainin,SoftwareType,DateUTC
2013-08-08 00:14:00,72.5,65.6,30.01,SSW,202,4.2,-999.0,79,-99.99,,,0.00,Acu-Link.com,2013-08-08 04:14:00,
2013-08-08 00:30:00,72.7,65.8,30.01,SSE,157,1.1,-999.0,79,-99.99,,,0.00,Acu-Link.com,2013-08-08 04:30:00,
2013-08-08 00:45:00,72.7,65.4,30.01,SSE,157,3.7,-999.0,78,-99.99,,,0.00,Acu-Link.com,2013-08-08 04:45:00,
2013-08-08 01:00:00,72.7,65.4,30.01,WSW,247,2.2,-999.0,78,-99.99,,,0.00,Acu-Link.com,2013-08-08 05:00:00,
2013-08-08 01:15:00,72.7,65.4,30.01,SSW,202,2.2,-999.0,78,-99.99,,,0.00,Acu-Link.com,2013-08-08 05:15:00,
2013-08-08 01:30:00,72.7,65.4,30.01,SSE,157,4.2,-999.0,78,-99.99,,,0.00,Acu-Link.com,2013-08-08 05:30:00,
2013-08-08 01:46:00,72.7,65.4,30.00,WSW,247,3.7,-999.0,78,-99.99,,,0.00,Acu-Link.com,2013-08-08 05:46:00,
2013-08-08 02:01:00,72.7,65.4,30.00,East,90,2.7,-999.0,78,-99.99,,,0.00,Acu-Link.com,2013-08-08 06:01:00,
2013-08-08 02:16:00,72.5,65.2,30.00,SW,225,0.0,-999.0,78,-99.99,,,0.00,Acu-Link.com,2013-08-08 06:16:00,
2013-08-08 02:31:00,72.5,65.2,30.00,SSE,157,0.0,-999.0,78,-99.99,,,0.00,Acu-Link.com,2013-08-08 06:31:00,
2013-08-08 02:46:00,72.5,65.2,29.99,SE,135,3.2,-999.0,78,-99.99,,,0.00,Acu-Link.com,2013-08-08 06:46:00,
2013-08-08 03:02:00,72.5,65.2,29.99,ESE,112,2.2,-999.0,78,-99.99,,,0.00,Acu-Link.com,2013-08-08 07:02:00,
2013-08-08 03:17:00,72.5,65.2,29.99,NNE,22,3.7,-999.0,78,-99.99,,,0.00,Acu-Link.com,2013-08-08 07:17:00,
2013-08-08 03:32:00,72.5,65.2,29.99,SSE,157,3.2,-999.0,78,-99.99,,,0.00,Acu-Link.com,2013-08-08 07:32:00,
2013-08-08 03:47:00,72.5,65.2,29.99,NNW,337,2.2,-999.0,78,-99.99,,,0.00,Acu-Link.com,2013-08-08 07:47:00,
2013-08-08 04:03:00,72.5,65.2,29.98,ENE,67,4.2,-999.0,78,-99.99,,,0.00,Acu-Link.com,2013-08-08 08:03:00,
2013-08-08 04:18:00,72.5,65.2,29.98,West,270,2.7,-999.0,78,-99.99,,,0.00,Acu-Link.com,2013-08-08 08:18:00,
2013-08-08 04:33:00,72.5,65.2,29.98,South,180,2.7,-999.0,78,-99.99,,,0.00,Acu-Link.com,2013-08-08 08:33:00,
2013-08-08 04:48:00,72.5,65.2,29.98,SSE,157,2.2,-999.0,78,-99.99,,,0.00,Acu-Link.com,2013-08-08 08:48:00,
2013-08-08 05:04:00,72.5,65.6,29.98,SW,225,0.0,-999.0,79,-99.99,,,0.00,Acu-Link.com,2013-08-08 09:04:00,
2013-08-08 05:19:00,72.3,65.4,29.99,West,270,3.7,-999.0,79,-99.99,,,0.00,Acu-Link.com,2013-08-08 09:19:00,
2013-08-08 05:34:00,72.5,65.6,30.00,SSW,202,1.1,-999.0,79,-99.99,,,0.00,Acu-Link.com,2013-08-08 09:34:00,
2013-08-08 05:49:00,72.3,65.4,29.99,SSE,157,2.2,-999.0,79,-99.99,,,0.00,Acu-Link.com,2013-08-08 09:49:00,
2013-08-08 06:04:00,72.3,65.4,30.00,ESE,112,3.2,-999.0,79,-99.99,,,0.00,Acu-Link.com,2013-08-08 10:04:00,
2013-08-08 06:20:00,72.7,65.8,30.00,SSW,202,2.2,-999.0,79,-99.99,,,0.00,Acu-Link.com,2013-08-08 10:20:00,
2013-08-08 06:35:00,72.7,65.8,30.00,NW,315,1.7,-999.0,79,-99.99,,,0.00,Acu-Link.com,2013-08-08 10:35:00,
2013-08-08 06:50:00,73.0,66.1,30.01,South,180,2.7,-999.0,79,-99.99,,,0.00,Acu-Link.com,2013-08-08 10:50:00,
2013-08-08 07:05:00,73.4,66.5,30.01,WSW,247,0.0,-999.0,79,-99.99,,,0.00,Acu-Link.com,2013-08-08 11:05:00,
2013-08-08 07:21:00,73.9,67.0,30.01,South,180,2.2,-999.0,79,-99.99,,,0.00,Acu-Link.com,2013-08-08 11:21:00,
2013-08-08 07:36:00,74.7,67.4,30.00,West,270,3.2,-999.0,78,-99.99,,,0.00,Acu-Link.com,2013-08-08 11:36:00,
2013-08-08 07:51:00,75.9,67.8,30.01,ESE,112,2.7,-999.0,76,-99.99,,,0.00,Acu-Link.com,2013-08-08 11:51:00,
2013-08-08 08:06:00,76.3,67.8,30.01,West,270,4.7,-999.0,75,-99.99,,,0.00,Acu-Link.com,2013-08-08 12:06:00,
2013-08-08 08:21:00,76.1,68.0,30.01,SW,225,1.7,-999.0,76,-99.99,,,0.00,Acu-Link.com,2013-08-08 12:21:00,
2013-08-08 08:37:00,76.3,68.2,30.01,SW,225,3.2,-999.0,76,-99.99,,,0.00,Acu-Link.com,2013-08-08 12:37:00,
2013-08-08 08:52:00,77.0,68.5,30.01,SSW,202,2.2,-999.0,75,-99.99,,,0.00,Acu-Link.com,2013-08-08 12:52:00,
2013-08-08 09:07:00,77.4,68.4,30.01,South,180,4.2,-999.0,74,-99.99,,,0.00,Acu-Link.com,2013-08-08 13:07:00,
2013-08-08 09:22:00,78.6,69.6,30.01,NNW,337,2.7,-999.0,74,-99.99,,,0.00,Acu-Link.com,2013-08-08 13:22:00,
2013-08-08 09:37:00,79.7,69.4,30.01,SE,135,3.2,-999.0,71,-99.99,,,0.00,Acu-Link.com,2013-08-08 13:37:00,
2013-08-08 09:53:00,81.7,70.5,30.01,WSW,247,4.7,-999.0,69,-99.99,,,0.00,Acu-Link.com,2013-08-08 13:53:00,
2013-08-08 10:08:00,80.6,70.7,30.01,SW,225,3.7,-999.0,72,-99.99,,,0.00,Acu-Link.com,2013-08-08 14:08:00,
2013-08-08 10:23:00,81.5,70.7,30.01,ESE,112,3.7,-999.0,70,-99.99,,,0.00,Acu-Link.com,2013-08-08 14:23:00,
2013-08-08 10:39:00,83.1,71.4,30.00,SW,225,2.2,-999.0,68,-99.99,,,0.00,Acu-Link.com,2013-08-08 14:39:00,
2013-08-08 10:54:00,82.6,71.4,30.00,ENE,67,2.7,-999.0,69,-99.99,,,0.00,Acu-Link.com,2013-08-08 14:54:00,
2013-08-08 11:09:00,84.4,72.2,30.00,West,270,4.2,-999.0,67,-99.99,,,0.00,Acu-Link.com,2013-08-08 15:09:00,
2013-08-08 11:24:00,83.1,71.4,30.00,NNW,337,2.7,-999.0,68,-99.99,,,0.00,Acu-Link.com,2013-08-08 15:24:00,
2013-08-08 11:39:00,84.2,71.6,29.99,SW,225,4.2,-999.0,66,-99.99,,,0.00,Acu-Link.com,2013-08-08 15:39:00,
2013-08-08 11:55:00,84.7,71.6,29.99,SSE,157,4.7,-999.0,65,-99.99,,,0.00,Acu-Link.com,2013-08-08 15:55:00,
2013-08-08 12:10:00,84.7,72.1,29.99,West,270,4.2,-999.0,66,-99.99,,,0.00,Acu-Link.com,2013-08-08 16:10:00,
2013-08-08 12:25:00,84.4,71.3,29.99,ESE,112,2.7,-999.0,65,-99.99,,,0.00,Acu-Link.com,2013-08-08 16:25:00,
2013-08-08 12:40:00,86.0,71.4,29.98,SW,225,3.2,-999.0,62,-99.99,,,0.00,Acu-Link.com,2013-08-08 16:40:00,
2013-08-08 12:55:00,86.0,71.9,29.98,WNW,292,3.2,-999.0,63,-99.99,,,0.00,Acu-Link.com,2013-08-08 16:55:00,
2013-08-08 13:11:00,84.7,70.7,29.98,NNE,22,1.7,-999.0,63,-99.99,,,0.00,Acu-Link.com,2013-08-08 17:11:00,
2013-08-08 13:26:00,85.5,71.4,29.98,South,180,3.7,-999.0,63,-99.99,,,0.00,Acu-Link.com,2013-08-08 17:26:00,
2013-08-08 13:41:00,85.5,71.4,29.97,SW,225,3.7,-999.0,63,-99.99,,,0.00,Acu-Link.com,2013-08-08 17:41:00,
2013-08-08 13:56:00,86.5,71.4,29.97,ESE,112,1.7,-999.0,61,-99.99,,,0.00,Acu-Link.com,2013-08-08 17:56:00,
2013-08-08 14:12:00,86.0,71.4,29.97,WNW,292,1.1,-999.0,62,-99.99,,,0.00,Acu-Link.com,2013-08-08 18:12:00,
2013-08-08 14:27:00,86.4,71.8,29.97,South,180,3.2,-999.0,62,-99.99,,,0.00,Acu-Link.com,2013-08-08 18:27:00,
2013-08-08 14:42:00,86.7,72.6,29.97,East,90,4.7,-999.0,63,-99.99,,,0.00,Acu-Link.com,2013-08-08 18:42:00,
2013-08-08 14:57:00,85.3,72.2,29.97,SSE,157,3.7,-999.0,65,-99.99,,,0.00,Acu-Link.com,2013-08-08 18:57:00,
2013-08-08 15:12:00,86.9,72.8,29.96,SE,135,3.2,-999.0,63,-99.99,,,0.00,Acu-Link.com,2013-08-08 19:12:00,
2013-08-08 15:28:00,83.5,71.8,29.97,SSE,157,2.2,-999.0,68,-99.99,,,0.00,Acu-Link.com,2013-08-08 19:28:00,
2013-08-08 15:43:00,85.1,73.3,29.97,SSW,202,3.7,-999.0,68,-99.99,,,0.00,Acu-Link.com,2013-08-08 19:43:00,
2013-08-08 15:58:00,83.3,70.3,29.97,SW,225,4.2,-999.0,65,-99.99,,,0.00,Acu-Link.com,2013-08-08 19:58:00,
2013-08-08 16:14:00,83.8,71.6,29.98,South,180,5.8,-999.0,67,-99.99,,,0.00,Acu-Link.com,2013-08-08 20:14:00,
2013-08-08 16:29:00,85.3,71.7,29.99,ESE,112,5.8,-999.0,64,-99.99,,,0.00,Acu-Link.com,2013-08-08 20:29:00,
2013-08-08 16:44:00,83.8,71.2,29.98,SSW,202,3.2,-999.0,66,-99.99,,,0.00,Acu-Link.com,2013-08-08 20:44:00,
2013-08-08 16:59:00,83.1,70.5,29.98,ESE,112,4.2,-999.0,66,-99.99,,,0.00,Acu-Link.com,2013-08-08 20:59:00,
2013-08-08 17:15:00,83.7,71.1,29.98,North,0,1.1,-999.0,66,-99.99,,,0.00,Acu-Link.com,2013-08-08 21:15:00,
2013-08-08 17:30:00,83.7,71.1,29.97,SE,135,4.2,-999.0,66,-99.99,,,0.00,Acu-Link.com,2013-08-08 21:30:00,
2013-08-08 17:45:00,84.2,71.6,29.98,SW,225,4.2,-999.0,66,-99.99,,,0.00,Acu-Link.com,2013-08-08 21:45:00,
2013-08-08 18:00:00,82.2,70.6,29.98,SE,135,4.2,-999.0,68,-99.99,,,0.00,Acu-Link.com,2013-08-08 22:00:00,
2013-08-08 18:16:00,81.7,70.1,29.97,SE,135,3.2,-999.0,68,-99.99,,,0.00,Acu-Link.com,2013-08-08 22:16:00,
2013-08-08 18:31:00,81.0,69.4,29.98,SSW,202,4.7,-999.0,68,-99.99,,,0.00,Acu-Link.com,2013-08-08 22:31:00,
2013-08-08 18:46:00,80.2,69.1,29.97,ESE,112,4.2,-999.0,69,-99.99,,,0.00,Acu-Link.com,2013-08-08 22:46:00,
2013-08-08 19:17:00,78.8,69.0,29.98,ESE,112,0.0,-999.0,72,-99.99,,,0.00,Acu-Link.com,2013-08-08 23:17:00,
2013-08-08 19:32:00,78.3,68.9,29.98,WSW,247,2.2,-999.0,73,-99.99,,,0.00,Acu-Link.com,2013-08-08 23:32:00,
2013-08-08 19:47:00,77.7,69.1,29.98,ESE,112,2.7,-999.0,75,-99.99,,,0.00,Acu-Link.com,2013-08-08 23:47:00,
2013-08-08 20:03:00,77.2,69.0,29.99,SSE,157,6.8,-999.0,76,-99.99,,,0.00,Acu-Link.com,2013-08-09 00:03:00,
2013-08-08 20:33:00,76.6,69.2,29.99,ENE,67,3.7,-999.0,78,-99.99,,,0.00,Acu-Link.com,2013-08-09 00:33:00,
2013-08-08 21:03:00,76.3,69.3,29.98,SE,135,5.3,-999.0,79,-99.99,,,0.00,Acu-Link.com,2013-08-09 01:03:00,
2013-08-08 21:19:00,76.1,69.1,30.00,East,90,2.7,-999.0,79,-99.99,,,0.00,Acu-Link.com,2013-08-09 01:19:00,
2013-08-08 21:34:00,76.1,69.5,29.99,ESE,112,3.7,-999.0,80,-99.99,,,0.00,Acu-Link.com,2013-08-09 01:34:00,
2013-08-08 21:49:00,76.1,69.5,29.99,SE,135,2.7,-999.0,80,-99.99,,,0.00,Acu-Link.com,2013-08-09 01:49:00,
2013-08-08 22:04:00,75.9,69.6,29.99,SSE,157,4.2,-999.0,81,-99.99,,,0.00,Acu-Link.com,2013-08-09 02:04:00,
2013-08-08 22:19:00,75.9,69.6,29.98,ESE,112,2.7,-999.0,81,-99.99,,,0.00,Acu-Link.com,2013-08-09 02:19:00,
2013-08-08 22:35:00,75.7,69.4,29.98,ESE,112,2.2,-999.0,81,-99.99,,,0.00,Acu-Link.com,2013-08-09 02:35:00,
2013-08-08 23:05:00,75.6,69.7,29.98,SSE,157,1.7,-999.0,82,-99.99,,,0.00,Acu-Link.com,2013-08-09 03:05:00,
2013-08-08 23:20:00,75.6,69.7,29.97,South,180,2.2,-999.0,82,-99.99,,,0.00,Acu-Link.com,2013-08-09 03:20:00,
2013-08-08 23:36:00,75.4,69.9,29.96,SE,135,4.2,-999.0,83,-99.99,,,0.00,Acu-Link.com,2013-08-09 03:36:00,